Soldotna, Alaska
Current Conditions -  °F | °C
As of 5:36 AM on Thursday 23 Oct 2014 (Local Time) from PASX Reporting Station
Clear Clear  
Wind Chill: 18°   Ceiling: Unl
Heat Index: 18°   Visibility: 10mi
Dew Point: 12°   Wind: 3mph
Humidity: 79%   Direction: 60°ENE
Pressure: 29.62"   Gusts: NA
Location:  60.49°N, 151.06°W
Report Text: PASX 231336Z AUTO 06003KT 10SM CLR M08/M11 A2962 RMK AO1
Loading
Personal Weather Stations






























Interactive Weather Map
Tropical Storm Tracking
New forecast layout! Learn more

10-Day Weather Forecast

Advertisements
Track Severe Weather on mobile